sensor_id;sensor_type;location;lat;lon;timestamp;pressure;altitude;pressure_sealevel;temperature;humidity
22753;BME280;11543;43.144;24.684;2022-12-18T00:00:48;99729.66;;;10.08;77.50
22753;BME280;11543;43.144;24.684;2022-12-18T00:03:14;99716.81;;;9.91;77.14
22753;BME280;11543;43.144;24.684;2022-12-18T00:06:00;99727.81;;;9.88;76.90
22753;BME280;11543;43.144;24.684;2022-12-18T00:08:25;99726.19;;;9.65;76.60
22753;BME280;11543;43.144;24.684;2022-12-18T00:10:51;99728.69;;;9.34;77.14
22753;BME280;11543;43.144;24.684;2022-12-18T00:13:16;99722.91;;;9.18;77.22
22753;BME280;11543;43.144;24.684;2022-12-18T00:15:42;99733.03;;;9.03;77.96
22753;BME280;11543;43.144;24.684;2022-12-18T00:18:07;99731.69;;;8.98;78.13
22753;BME280;11543;43.144;24.684;2022-12-18T00:20:37;99730.25;;;8.93;78.39
22753;BME280;11543;43.144;24.684;2022-12-18T00:23:03;99735.09;;;8.77;78.76
22753;BME280;11543;43.144;24.684;2022-12-18T00:25:29;99741.31;;;8.89;78.99
22753;BME280;11543;43.144;24.684;2022-12-18T00:27:57;99748.97;;;9.05;78.82
22753;BME280;11543;43.144;24.684;2022-12-18T00:30:22;99737.97;;;9.19;78.85
22753;BME280;11543;43.144;24.684;2022-12-18T00:32:48;99731.69;;;8.98;77.78
22753;BME280;11543;43.144;24.684;2022-12-18T00:35:13;99743.50;;;8.84;78.18
22753;BME280;11543;43.144;24.684;2022-12-18T00:37:39;99732.16;;;8.47;78.01
22753;BME280;11543;43.144;24.684;2022-12-18T00:40:05;99749.53;;;8.41;78.64
22753;BME280;11543;43.144;24.684;2022-12-18T00:42:30;99745.56;;;8.23;79.45
22753;BME280;11543;43.144;24.684;2022-12-18T00:45:14;99756.88;;;8.26;79.89
22753;BME280;11543;43.144;24.684;2022-12-18T00:47:40;99758.59;;;8.27;80.19
22753;BME280;11543;43.144;24.684;2022-12-18T00:50:06;99760.34;;;8.51;80.38
22753;BME280;11543;43.144;24.684;2022-12-18T00:52:32;99755.75;;;8.64;80.64
22753;BME280;11543;43.144;24.684;2022-12-18T00:54:57;99754.09;;;8.74;80.54
22753;BME280;11543;43.144;24.684;2022-12-18T00:57:22;99739.59;;;8.77;80.11
22753;BME280;11543;43.144;24.684;2022-12-18T00:59:48;99756.03;;;8.83;79.15
22753;BME280;11543;43.144;24.684;2022-12-18T01:02:13;99746.50;;;8.57;78.97
22753;BME280;11543;43.144;24.684;2022-12-18T01:04:39;99733.38;;;8.65;79.21
22753;BME280;11543;43.144;24.684;2022-12-18T01:07:04;99747.03;;;8.84;78.96
22753;BME280;11543;43.144;24.684;2022-12-18T01:09:29;99761.38;;;8.83;78.45
22753;BME280;11543;43.144;24.684;2022-12-18T01:11:55;99769.66;;;8.91;78.60
22753;BME280;11543;43.144;24.684;2022-12-18T01:14:20;99742.38;;;8.53;78.05
22753;BME280;11543;43.144;24.684;2022-12-18T01:16:46;99758.53;;;8.51;78.62
22753;BME280;11543;43.144;24.684;2022-12-18T01:19:11;99754.41;;;8.47;78.61
22753;BME280;11543;43.144;24.684;2022-12-18T01:21:37;99758.66;;;8.61;78.56
22753;BME280;11543;43.144;24.684;2022-12-18T01:24:02;99757.44;;;8.65;78.66
22753;BME280;11543;43.144;24.684;2022-12-18T01:26:28;99787.84;;;8.64;78.24
22753;BME280;11543;43.144;24.684;2022-12-18T01:28:55;99766.91;;;8.36;78.64
22753;BME280;11543;43.144;24.684;2022-12-18T01:31:30;99787.97;;;8.16;78.71
22753;BME280;11543;43.144;24.684;2022-12-18T01:33:56;99789.13;;;8.01;79.48
22753;BME280;11543;43.144;24.684;2022-12-18T01:36:33;99788.38;;;7.99;79.74
22753;BME280;11543;43.144;24.684;2022-12-18T01:39:01;99792.34;;;8.17;79.92
22753;BME280;11543;43.144;24.684;2022-12-18T01:41:29;99792.44;;;8.40;80.06
22753;BME280;11543;43.144;24.684;2022-12-18T01:47:21;99778.41;;;8.71;80.36
22753;BME280;11543;43.144;24.684;2022-12-18T01:49:47;99788.03;;;8.96;80.28
22753;BME280;11543;43.144;24.684;2022-12-18T01:52:13;99792.16;;;9.11;79.97
22753;BME280;11543;43.144;24.684;2022-12-18T01:54:38;99781.44;;;9.11;79.84
22753;BME280;11543;43.144;24.684;2022-12-18T01:57:04;99792.03;;;9.13;78.07
22753;BME280;11543;43.144;24.684;2022-12-18T01:59:30;99789.59;;;8.87;77.11
22753;BME280;11543;43.144;24.684;2022-12-18T02:01:57;99797.25;;;8.92;77.05
22753;BME280;11543;43.144;24.684;2022-12-18T02:04:27;99807.97;;;8.92;76.49
22753;BME280;11543;43.144;24.684;2022-12-18T02:07:31;99811.13;;;8.75;76.58
22753;BME280;11543;43.144;24.684;2022-12-18T02:10:39;99810.75;;;8.68;76.88
22753;BME280;11543;43.144;24.684;2022-12-18T02:13:14;99807.06;;;8.58;77.18
22753;BME280;11543;43.144;24.684;2022-12-18T02:18:50;99824.84;;;8.00;79.16
22753;BME280;11543;43.144;24.684;2022-12-18T02:21:42;99828.66;;;7.85;79.70
22753;BME280;11543;43.144;24.684;2022-12-18T02:24:29;99839.75;;;7.79;79.89
22753;BME280;11543;43.144;24.684;2022-12-18T02:26:59;99845.88;;;7.81;80.39
22753;BME280;11543;43.144;24.684;2022-12-18T02:29:57;99845.88;;;7.81;80.48
22753;BME280;11543;43.144;24.684;2022-12-18T02:32:28;99841.63;;;7.65;81.10
22753;BME280;11543;43.144;24.684;2022-12-18T02:34:56;99813.34;;;7.26;81.36
22753;BME280;11543;43.144;24.684;2022-12-18T02:37:23;99857.94;;;7.37;82.47
22753;BME280;11543;43.144;24.684;2022-12-18T02:39:53;99846.97;;;7.29;82.43
22753;BME280;11543;43.144;24.684;2022-12-18T02:42:20;99860.41;;;7.40;82.85
22753;BME280;11543;43.144;24.684;2022-12-18T02:44:48;99860.84;;;7.34;82.90
22753;BME280;11543;43.144;24.684;2022-12-18T02:47:23;99870.78;;;7.32;82.60
22753;BME280;11543;43.144;24.684;2022-12-18T02:50:07;99859.47;;;7.28;82.47
22753;BME280;11543;43.144;24.684;2022-12-18T02:52:47;99871.84;;;7.29;82.74
22753;BME280;11543;43.144;24.684;2022-12-18T02:57:58;99870.78;;;7.32;82.86
22753;BME280;11543;43.144;24.684;2022-12-18T03:00:38;99898.13;;;7.23;83.14
22753;BME280;11543;43.144;24.684;2022-12-18T03:03:15;99897.16;;;7.24;83.22
22753;BME280;11543;43.144;24.684;2022-12-18T03:05:59;99897.00;;;7.51;83.58
22753;BME280;11543;43.144;24.684;2022-12-18T03:08:34;99887.56;;;7.71;83.02
22753;BME280;11543;43.144;24.684;2022-12-18T03:11:06;99897.03;;;7.75;82.11
22753;BME280;11543;43.144;24.684;2022-12-18T03:13:36;99904.19;;;7.87;81.70
22753;BME280;11543;43.144;24.684;2022-12-18T03:16:06;99903.97;;;7.90;81.31
22753;BME280;11543;43.144;24.684;2022-12-18T03:18:48;99895.28;;;7.99;80.56
22753;BME280;11543;43.144;24.684;2022-12-18T03:21:18;99899.03;;;7.96;80.35
22753;BME280;11543;43.144;24.684;2022-12-18T03:23:49;99909.66;;;8.09;80.04
22753;BME280;11543;43.144;24.684;2022-12-18T03:26:21;99895.50;;;7.96;79.26
22753;BME280;11543;43.144;24.684;2022-12-18T03:28:55;99907.09;;;7.84;79.32
22753;BME280;11543;43.144;24.684;2022-12-18T03:31:23;99912.13;;;7.76;79.48
22753;BME280;11543;43.144;24.684;2022-12-18T03:33:57;99927.06;;;7.78;79.96
22753;BME280;11543;43.144;24.684;2022-12-18T03:36:24;99915.97;;;7.72;79.84
22753;BME280;11543;43.144;24.684;2022-12-18T03:38:50;99936.38;;;7.73;80.33
22753;BME280;11543;43.144;24.684;2022-12-18T03:41:34;99946.94;;;7.87;79.98
22753;BME280;11543;43.144;24.684;2022-12-18T03:47:09;99949.25;;;8.04;81.12
22753;BME280;11543;43.144;24.684;2022-12-18T03:50:03;99948.56;;;8.13;80.96
22753;BME280;11543;43.144;24.684;2022-12-18T03:52:42;99953.00;;;8.25;81.01
22753;BME280;11543;43.144;24.684;2022-12-18T03:55:12;99949.81;;;8.20;80.59
22753;BME280;11543;43.144;24.684;2022-12-18T03:57:38;99952.22;;;8.12;79.26
22753;BME280;11543;43.144;24.684;2022-12-18T04:00:11;99936.84;;;8.03;78.68
22753;BME280;11543;43.144;24.684;2022-12-18T04:02:39;99957.72;;;8.22;78.64
22753;BME280;11543;43.144;24.684;2022-12-18T04:05:08;99971.44;;;8.17;78.26
22753;BME280;11543;43.144;24.684;2022-12-18T04:07:34;99976.53;;;7.96;77.33
22753;BME280;11543;43.144;24.684;2022-12-18T04:10:01;99984.50;;;8.09;77.12
22753;BME280;11543;43.144;24.684;2022-12-18T04:12:29;99980.28;;;7.94;76.80
22753;BME280;11543;43.144;24.684;2022-12-18T04:14:54;99980.66;;;8.13;77.56
22753;BME280;11543;43.144;24.684;2022-12-18T04:17:20;99986.81;;;8.26;78.27
22753;BME280;11543;43.144;24.684;2022-12-18T04:19:46;99974.63;;;8.22;78.31
22753;BME280;11543;43.144;24.684;2022-12-18T04:22:12;99993.28;;;8.48;77.91
22753;BME280;11543;43.144;24.684;2022-12-18T04:24:37;99983.53;;;8.47;77.46
22753;BME280;11543;43.144;24.684;2022-12-18T04:27:03;99974.78;;;8.45;77.54
22753;BME280;11543;43.144;24.684;2022-12-18T04:29:29;99991.63;;;8.58;77.41
22753;BME280;11543;43.144;24.684;2022-12-18T04:31:54;99986.97;;;8.49;77.06
22753;BME280;11543;43.144;24.684;2022-12-18T04:34:20;99988.31;;;8.54;77.03
22753;BME280;11543;43.144;24.684;2022-12-18T04:36:46;99986.28;;;8.58;76.98
22753;BME280;11543;43.144;24.684;2022-12-18T04:39:11;99998.44;;;8.62;77.05
22753;BME280;11543;43.144;24.684;2022-12-18T04:41:37;99988.94;;;8.58;76.79
22753;BME280;11543;43.144;24.684;2022-12-18T04:44:03;99993.72;;;8.66;77.04
22753;BME280;11543;43.144;24.684;2022-12-18T04:46:28;99997.72;;;8.60;76.98
22753;BME280;11543;43.144;24.684;2022-12-18T04:48:54;99993.94;;;8.62;76.70
22753;BME280;11543;43.144;24.684;2022-12-18T04:51:19;99993.72;;;8.66;76.73
22753;BME280;11543;43.144;24.684;2022-12-18T04:53:45;100003.13;;;8.71;76.52
22753;BME280;11543;43.144;24.684;2022-12-18T04:56:13;100014.47;;;8.75;76.17
22753;BME280;11543;43.144;24.684;2022-12-18T04:58:40;100020.44;;;8.78;76.02
22753;BME280;11543;43.144;24.684;2022-12-18T05:01:06;100016.81;;;8.79;76.23
22753;BME280;11543;43.144;24.684;2022-12-18T05:03:33;100030.91;;;8.81;76.36
22753;BME280;11543;43.144;24.684;2022-12-18T05:05:59;100028.97;;;8.83;76.57
22753;BME280;11543;43.144;24.684;2022-12-18T05:08:25;100035.19;;;8.84;76.49
22753;BME280;11543;43.144;24.684;2022-12-18T05:13:30;100035.34;;;8.93;76.12
22753;BME280;11543;43.144;24.684;2022-12-18T05:15:56;100035.47;;;8.92;76.19
22753;BME280;11543;43.144;24.684;2022-12-18T05:18:22;100029.66;;;8.74;75.18
22753;BME280;11543;43.144;24.684;2022-12-18T05:20:49;100042.25;;;8.85;75.11
22753;BME280;11543;43.144;24.684;2022-12-18T05:23:15;100046.28;;;8.90;75.12
22753;BME280;11543;43.144;24.684;2022-12-18T05:25:41;100039.44;;;8.86;75.06
22753;BME280;11543;43.144;24.684;2022-12-18T05:28:06;100045.88;;;8.84;75.07
22753;BME280;11543;43.144;24.684;2022-12-18T05:30:31;100056.75;;;8.93;74.88
22753;BME280;11543;43.144;24.684;2022-12-18T05:32:57;100039.56;;;8.85;74.54
22753;BME280;11543;43.144;24.684;2022-12-18T05:35:23;100045.31;;;8.91;74.74
22753;BME280;11543;43.144;24.684;2022-12-18T05:37:49;100057.97;;;8.89;74.60
22753;BME280;11543;43.144;24.684;2022-12-18T05:40:14;100054.19;;;8.92;75.06
22753;BME280;11543;43.144;24.684;2022-12-18T05:42:40;100062.81;;;8.84;74.64
22753;BME280;11543;43.144;24.684;2022-12-18T05:45:06;100073.28;;;8.87;74.52
22753;BME280;11543;43.144;24.684;2022-12-18T05:47:31;100064.75;;;8.82;74.47
22753;BME280;11543;43.144;24.684;2022-12-18T05:49:57;100063.25;;;8.78;74.39
22753;BME280;11543;43.144;24.684;2022-12-18T05:52:22;100071.00;;;8.70;73.86
22753;BME280;11543;43.144;24.684;2022-12-18T05:54:48;100068.97;;;8.61;74.23
22753;BME280;11543;43.144;24.684;2022-12-18T05:57:13;100070.91;;;8.59;74.49
22753;BME280;11543;43.144;24.684;2022-12-18T05:59:39;100078.28;;;8.68;74.51
22753;BME280;11543;43.144;24.684;2022-12-18T06:02:04;100066.75;;;8.55;74.67
22753;BME280;11543;43.144;24.684;2022-12-18T06:04:30;100087.06;;;8.70;75.19
22753;BME280;11543;43.144;24.684;2022-12-18T06:06:56;100096.69;;;8.73;75.25
22753;BME280;11543;43.144;24.684;2022-12-18T06:09:21;100093.38;;;8.69;75.41
22753;BME280;11543;43.144;24.684;2022-12-18T06:11:46;100078.69;;;8.62;75.37
22753;BME280;11543;43.144;24.684;2022-12-18T06:14:12;100103.91;;;8.83;75.51
22753;BME280;11543;43.144;24.684;2022-12-18T06:16:38;100104.53;;;8.87;75.30
22753;BME280;11543;43.144;24.684;2022-12-18T06:19:04;100086.59;;;8.76;74.92
22753;BME280;11543;43.144;24.684;2022-12-18T06:21:31;100120.66;;;8.74;74.59
22753;BME280;11543;43.144;24.684;2022-12-18T06:23:57;100123.84;;;8.79;74.88
22753;BME280;11543;43.144;24.684;2022-12-18T06:26:23;100116.16;;;8.75;75.02
22753;BME280;11543;43.144;24.684;2022-12-18T06:28:49;100129.81;;;8.83;75.33
22753;BME280;11543;43.144;24.684;2022-12-18T06:31:14;100117.22;;;8.72;75.88
22753;BME280;11543;43.144;24.684;2022-12-18T06:33:40;100135.91;;;8.85;76.11
22753;BME280;11543;43.144;24.684;2022-12-18T06:36:11;100135.16;;;8.83;76.17
22753;BME280;11543;43.144;24.684;2022-12-18T06:38:38;100146.50;;;8.86;76.16
22753;BME280;11543;43.144;24.684;2022-12-18T06:41:10;100146.28;;;8.89;76.44
22753;BME280;11543;43.144;24.684;2022-12-18T06:43:37;100145.81;;;8.96;76.49
22753;BME280;11543;43.144;24.684;2022-12-18T06:46:03;100125.78;;;8.77;76.50
22753;BME280;11543;43.144;24.684;2022-12-18T06:48:30;100140.69;;;8.92;76.65
22753;BME280;11543;43.144;24.684;2022-12-18T06:50:55;100145.59;;;8.99;76.86
22753;BME280;11543;43.144;24.684;2022-12-18T06:53:21;100128.50;;;8.88;76.85
22753;BME280;11543;43.144;24.684;2022-12-18T06:55:47;100164.13;;;9.02;76.52
22753;BME280;11543;43.144;24.684;2022-12-18T06:58:13;100146.28;;;8.89;76.71
22753;BME280;11543;43.144;24.684;2022-12-18T07:00:38;100158.25;;;8.97;77.34
22753;BME280;11543;43.144;24.684;2022-12-18T07:03:03;100166.56;;;9.05;77.60
22753;BME280;11543;43.144;24.684;2022-12-18T07:05:29;100158.31;;;9.08;77.90
22753;BME280;11543;43.144;24.684;2022-12-18T07:07:54;100179.28;;;9.14;77.75
22753;BME280;11543;43.144;24.684;2022-12-18T07:10:20;100165.88;;;9.14;77.91
22753;BME280;11543;43.144;24.684;2022-12-18T07:12:45;100163.94;;;9.16;77.84
22753;BME280;11543;43.144;24.684;2022-12-18T07:15:11;100171.00;;;9.17;77.70
22753;BME280;11543;43.144;24.684;2022-12-18T07:17:36;100167.59;;;9.15;77.51
22753;BME280;11543;43.144;24.684;2022-12-18T07:20:02;100170.22;;;9.04;77.11
22753;BME280;11543;43.144;24.684;2022-12-18T07:22:28;100166.56;;;9.05;77.25
22753;BME280;11543;43.144;24.684;2022-12-18T07:24:53;100168.56;;;9.14;77.05
22753;BME280;11543;43.144;24.684;2022-12-18T07:27:18;100191.88;;;9.24;77.03
22753;BME280;11543;43.144;24.684;2022-12-18T07:29:44;100177.44;;;9.14;76.60
22753;BME280;11543;43.144;24.684;2022-12-18T07:32:09;100177.09;;;9.19;77.11
22753;BME280;11543;43.144;24.684;2022-12-18T07:34:35;100191.75;;;9.26;76.98
22753;BME280;11543;43.144;24.684;2022-12-18T07:37:00;100164.63;;;9.07;76.77
22753;BME280;11543;43.144;24.684;2022-12-18T07:39:26;100182.75;;;9.27;76.59
22753;BME280;11543;43.144;24.684;2022-12-18T07:41:51;100187.53;;;9.11;75.32
22753;BME280;11543;43.144;24.684;2022-12-18T07:44:35;100202.41;;;9.15;74.68
22753;BME280;11543;43.144;24.684;2022-12-18T07:47:01;100205.97;;;9.03;72.52
22753;BME280;11543;43.144;24.684;2022-12-18T07:49:27;100195.94;;;8.93;72.59
22753;BME280;11543;43.144;24.684;2022-12-18T07:51:55;100190.38;;;8.97;72.61
22753;BME280;11543;43.144;24.684;2022-12-18T07:54:21;100195.78;;;8.71;69.86
22753;BME280;11543;43.144;24.684;2022-12-18T07:56:47;100194.41;;;8.53;68.92
22753;BME280;11543;43.144;24.684;2022-12-18T07:59:12;100218.38;;;8.67;69.72
22753;BME280;11543;43.144;24.684;2022-12-18T08:01:38;100215.38;;;8.59;69.15
22753;BME280;11543;43.144;24.684;2022-12-18T08:04:03;100228.22;;;8.54;68.01
22753;BME280;11543;43.144;24.684;2022-12-18T08:06:28;100225.75;;;8.38;68.55
22753;BME280;11543;43.144;24.684;2022-12-18T08:08:55;100232.56;;;8.29;66.50
22753;BME280;11543;43.144;24.684;2022-12-18T08:11:21;100235.72;;;8.36;68.00
22753;BME280;11543;43.144;24.684;2022-12-18T08:13:47;100220.28;;;8.14;66.08
22753;BME280;11543;43.144;24.684;2022-12-18T08:16:12;100227.75;;;8.09;66.59
22753;BME280;11543;43.144;24.684;2022-12-18T08:18:38;100228.50;;;8.24;65.29
22753;BME280;11543;43.144;24.684;2022-12-18T08:21:31;100243.41;;;8.41;66.29
22753;BME280;11543;43.144;24.684;2022-12-18T08:24:00;100249.81;;;8.51;65.21
22753;BME280;11543;43.144;24.684;2022-12-18T08:26:27;100238.13;;;8.26;61.67
22753;BME280;11543;43.144;24.684;2022-12-18T08:28:55;100252.81;;;8.34;60.23
22753;BME280;11543;43.144;24.684;2022-12-18T08:31:21;100235.56;;;8.25;61.26
22753;BME280;11543;43.144;24.684;2022-12-18T08:33:51;100254.63;;;8.33;60.03
22753;BME280;11543;43.144;24.684;2022-12-18T08:36:18;100258.69;;;8.39;61.31
22753;BME280;11543;43.144;24.684;2022-12-18T08:38:44;100263.59;;;8.19;60.43
22753;BME280;11543;43.144;24.684;2022-12-18T08:41:11;100258.66;;;8.26;57.72
22753;BME280;11543;43.144;24.684;2022-12-18T08:43:37;100268.28;;;8.28;57.73
22753;BME280;11543;43.144;24.684;2022-12-18T08:46:23;100261.22;;;8.27;58.36
22753;BME280;11543;43.144;24.684;2022-12-18T08:48:54;100266.19;;;8.34;59.58
22753;BME280;11543;43.144;24.684;2022-12-18T08:51:22;100238.28;;;8.38;58.49
22753;BME280;11543;43.144;24.684;2022-12-18T08:53:47;100257.41;;;8.57;58.25
22753;BME280;11543;43.144;24.684;2022-12-18T08:56:13;100260.63;;;8.62;56.84
22753;BME280;11543;43.144;24.684;2022-12-18T08:58:40;100261.94;;;8.69;56.93
22753;BME280;11543;43.144;24.684;2022-12-18T09:01:08;100252.72;;;8.48;56.00
22753;BME280;11543;43.144;24.684;2022-12-18T09:03:36;100253.34;;;8.51;58.05
22753;BME280;11543;43.144;24.684;2022-12-18T09:06:02;100263.22;;;8.76;58.16
22753;BME280;11543;43.144;24.684;2022-12-18T09:08:28;100263.09;;;8.78;56.80
22753;BME280;11543;43.144;24.684;2022-12-18T09:10:54;100271.09;;;8.65;56.22
22753;BME280;11543;43.144;24.684;2022-12-18T09:13:20;100244.78;;;8.59;55.67
22753;BME280;11543;43.144;24.684;2022-12-18T09:15:48;100260.22;;;8.81;56.92
22753;BME280;11543;43.144;24.684;2022-12-18T09:18:16;100272.19;;;8.75;55.88
22753;BME280;11543;43.144;24.684;2022-12-18T09:20:42;100272.19;;;8.62;57.13
22753;BME280;11543;43.144;24.684;2022-12-18T09:23:07;100273.59;;;8.68;58.44
22753;BME280;11543;43.144;24.684;2022-12-18T09:25:34;100257.31;;;8.46;56.81
22753;BME280;11543;43.144;24.684;2022-12-18T09:28:09;100272.63;;;8.56;58.51
22753;BME280;11543;43.144;24.684;2022-12-18T09:30:38;100278.59;;;8.60;56.65
22753;BME280;11543;43.144;24.684;2022-12-18T09:33:04;100276.16;;;8.57;57.81
22753;BME280;11543;43.144;24.684;2022-12-18T09:35:29;100266.94;;;8.61;58.36
22753;BME280;11543;43.144;24.684;2022-12-18T09:37:55;100269.22;;;8.67;58.44
22753;BME280;11543;43.144;24.684;2022-12-18T09:40:23;100280.78;;;8.68;57.53
22753;BME280;11543;43.144;24.684;2022-12-18T09:42:59;100272.81;;;8.66;59.03
22753;BME280;11543;43.144;24.684;2022-12-18T09:45:26;100279.69;;;8.70;59.30
22753;BME280;11543;43.144;24.684;2022-12-18T09:47:54;100290.72;;;8.78;58.06
22753;BME280;11543;43.144;24.684;2022-12-18T09:52:57;100284.19;;;8.82;56.97
22753;BME280;11543;43.144;24.684;2022-12-18T09:55:34;100278.19;;;8.79;55.73
22753;BME280;11543;43.144;24.684;2022-12-18T10:00:52;100271.97;;;8.91;55.42
22753;BME280;11543;43.144;24.684;2022-12-18T10:03:17;100279.44;;;8.99;56.22
22753;BME280;11543;43.144;24.684;2022-12-18T10:06:29;100277.06;;;9.07;54.32
22753;BME280;11543;43.144;24.684;2022-12-18T10:11:59;100282.00;;;9.00;54.62
22753;BME280;11543;43.144;24.684;2022-12-18T10:14:46;100270.47;;;8.87;53.74
22753;BME280;11543;43.144;24.684;2022-12-18T10:19:51;100279.03;;;8.79;53.22
22753;BME280;11543;43.144;24.684;2022-12-18T10:22:54;100276.91;;;8.72;53.01
22753;BME280;11543;43.144;24.684;2022-12-18T10:26:13;100272.75;;;8.68;52.25
22753;BME280;11543;43.144;24.684;2022-12-18T10:28:20;100267.47;;;8.66;52.43
22753;BME280;11543;43.144;24.684;2022-12-18T10:30:46;100277.75;;;8.85;54.29
22753;BME280;11543;43.144;24.684;2022-12-18T10:33:16;100272.72;;;8.93;54.10
22753;BME280;11543;43.144;24.684;2022-12-18T10:35:42;100279.44;;;8.99;54.38
22753;BME280;11543;43.144;24.684;2022-12-18T10:40:56;100268.22;;;8.93;54.94
22753;BME280;11543;43.144;24.684;2022-12-18T10:51:05;100266.81;;;9.01;54.63
22753;BME280;11543;43.144;24.684;2022-12-18T10:53:35;100266.59;;;9.04;54.60
22753;BME280;11543;43.144;24.684;2022-12-18T10:56:03;100283.09;;;8.98;53.22
22753;BME280;11543;43.144;24.684;2022-12-18T10:58:35;100275.72;;;8.88;52.67
22753;BME280;11543;43.144;24.684;2022-12-18T11:06:17;100258.91;;;8.61;53.16
22753;BME280;11543;43.144;24.684;2022-12-18T11:08:56;100270.56;;;8.60;53.21
22753;BME280;11543;43.144;24.684;2022-12-18T11:11:23;100275.31;;;8.69;53.45
22753;BME280;11543;43.144;24.684;2022-12-18T11:14:06;100275.41;;;8.68;51.54
22753;BME280;11543;43.144;24.684;2022-12-18T11:16:45;100294.44;;;8.63;52.84
22753;BME280;11543;43.144;24.684;2022-12-18T11:19:22;100293.38;;;8.53;52.26
22753;BME280;11543;43.144;24.684;2022-12-18T11:21:49;100269.41;;;8.39;52.45
22753;BME280;11543;43.144;24.684;2022-12-18T11:26:52;100281.38;;;8.46;54.17
22753;BME280;11543;43.144;24.684;2022-12-18T11:29:23;100268.88;;;8.34;54.61
22753;BME280;11543;43.144;24.684;2022-12-18T11:31:49;100291.22;;;8.45;53.16
22753;BME280;11543;43.144;24.684;2022-12-18T11:34:30;100298.94;;;8.50;53.68
22753;BME280;11543;43.144;24.684;2022-12-18T11:36:58;100288.63;;;8.31;54.09
22753;BME280;11543;43.144;24.684;2022-12-18T11:39:34;100291.13;;;8.34;54.91
22753;BME280;11543;43.144;24.684;2022-12-18T11:42:11;100279.75;;;8.30;54.64
22753;BME280;11543;43.144;24.684;2022-12-18T11:50:14;100288.03;;;8.01;52.73
22753;BME280;11543;43.144;24.684;2022-12-18T11:52:41;100291.56;;;8.01;53.20
22753;BME280;11543;43.144;24.684;2022-12-18T12:01:42;100279.16;;;8.00;56.30
22753;BME280;11543;43.144;24.684;2022-12-18T12:14:56;100293.38;;;7.74;55.88
22753;BME280;11543;43.144;24.684;2022-12-18T12:17:47;100301.94;;;7.79;55.99
22753;BME280;11543;43.144;24.684;2022-12-18T12:20:42;100303.88;;;7.77;54.85
22753;BME280;11543;43.144;24.684;2022-12-18T12:23:23;100300.72;;;7.84;56.75
22753;BME280;11543;43.144;24.684;2022-12-18T12:26:18;100307.03;;;7.83;55.12
22753;BME280;11543;43.144;24.684;2022-12-18T12:29:01;100292.59;;;7.86;54.51
22753;BME280;11543;43.144;24.684;2022-12-18T12:35:12;100297.31;;;7.95;54.61
22753;BME280;11543;43.144;24.684;2022-12-18T12:40:17;100311.03;;;8.03;55.40
22753;BME280;11543;43.144;24.684;2022-12-18T12:42:54;100293.78;;;7.94;55.17
22753;BME280;11543;43.144;24.684;2022-12-18T12:46:00;100315.53;;;8.03;54.99
22753;BME280;11543;43.144;24.684;2022-12-18T12:48:49;100316.38;;;8.03;54.84
22753;BME280;11543;43.144;24.684;2022-12-18T12:51:23;100312.75;;;8.04;55.35
22753;BME280;11543;43.144;24.684;2022-12-18T12:53:49;100313.69;;;8.03;56.52
22753;BME280;11543;43.144;24.684;2022-12-18T12:56:17;100319.38;;;8.11;56.19
22753;BME280;11543;43.144;24.684;2022-12-18T12:59:04;100323.78;;;8.12;57.81
22753;BME280;11543;43.144;24.684;2022-12-18T13:04:21;100328.44;;;7.96;56.07
22753;BME280;11543;43.144;24.684;2022-12-18T13:09:21;100327.69;;;7.94;57.36
22753;BME280;11543;43.144;24.684;2022-12-18T13:11:47;100325.31;;;7.89;58.23
22753;BME280;11543;43.144;24.684;2022-12-18T13:14:37;100339.47;;;8.04;58.63
22753;BME280;11543;43.144;24.684;2022-12-18T13:19:49;100331.66;;;8.01;57.56
22753;BME280;11543;43.144;24.684;2022-12-18T13:22:24;100330.94;;;8.12;58.05
22753;BME280;11543;43.144;24.684;2022-12-18T13:24:50;100337.91;;;8.14;58.67
22753;BME280;11543;43.144;24.684;2022-12-18T13:40:56;100358.31;;;8.15;58.02
22753;BME280;11543;43.144;24.684;2022-12-18T13:43:26;100358.13;;;8.18;58.37
22753;BME280;11543;43.144;24.684;2022-12-18T13:46:23;100343.31;;;8.00;58.49
22753;BME280;11543;43.144;24.684;2022-12-18T13:49:04;100352.09;;;8.02;58.52
22753;BME280;11543;43.144;24.684;2022-12-18T13:51:33;100362.38;;;8.08;58.18
22753;BME280;11543;43.144;24.684;2022-12-18T13:54:01;100344.41;;;8.10;58.22
22753;BME280;11543;43.144;24.684;2022-12-18T13:56:30;100358.53;;;8.12;57.87
22753;BME280;11543;43.144;24.684;2022-12-18T14:01:34;100379.25;;;7.82;57.47
22753;BME280;11543;43.144;24.684;2022-12-18T14:06:46;100347.13;;;7.28;57.06
22753;BME280;11543;43.144;24.684;2022-12-18T14:09:18;100386.00;;;7.32;57.92
22753;BME280;11543;43.144;24.684;2022-12-18T14:11:47;100391.75;;;7.26;57.58
22753;BME280;11543;43.144;24.684;2022-12-18T14:14:17;100398.22;;;7.36;57.51
22753;BME280;11543;43.144;24.684;2022-12-18T14:16:43;100369.44;;;7.27;58.33
22753;BME280;11543;43.144;24.684;2022-12-18T14:19:16;100369.03;;;7.33;58.60
22753;BME280;11543;43.144;24.684;2022-12-18T14:21:49;100402.00;;;7.46;58.73
22753;BME280;11543;43.144;24.684;2022-12-18T14:24:20;100410.56;;;7.65;58.89
22753;BME280;11543;43.144;24.684;2022-12-18T14:26:48;100404.06;;;7.70;59.48
22753;BME280;11543;43.144;24.684;2022-12-18T14:32:13;100415.16;;;7.63;60.45
22753;BME280;11543;43.144;24.684;2022-12-18T14:34:42;100412.44;;;7.78;60.10
22753;BME280;11543;43.144;24.684;2022-12-18T14:37:10;100422.22;;;7.64;58.66
22753;BME280;11543;43.144;24.684;2022-12-18T14:39:36;100408.69;;;7.53;57.51
22753;BME280;11543;43.144;24.684;2022-12-18T14:42:02;100416.88;;;7.64;57.52
22753;BME280;11543;43.144;24.684;2022-12-18T14:44:27;100405.28;;;7.23;57.85
22753;BME280;11543;43.144;24.684;2022-12-18T14:46:53;100401.94;;;7.05;57.94
22753;BME280;11543;43.144;24.684;2022-12-18T14:49:30;100420.34;;;7.10;58.02